Time;durP1;ratioP1;P1;durP2;ratioP2;P2;SDS_P1;SDS_P2;PMS_P1;PMS_P2;Temp;Humidity;BMP_temperature;BMP_pressure;BME280_temperature;BME280_humidity;BME280_pressure;Samples;Min_cycle;Max_cycle;Signal;HPM_P1;HPM_P2
2022/03/27 00:01:40;;;;;;;8.33;7.47;;;14.80;91.00;;;15.53;43.01;102626.63;4940831;28;103839;-48
2022/03/27 00:04:07;;;;;;;9.07;7.87;;;14.90;90.50;;;15.58;43.19;102624.72;4921975;28;124603;-45
2022/03/27 00:06:33;;;;;;;12.80;10.50;;;15.00;90.40;;;15.63;43.21;102622.88;4926375;28;98270;-48
2022/03/27 00:08:58;;;;;;;7.37;6.67;;;15.10;90.30;;;15.68;43.07;102628.06;4921945;28;108991;-45
2022/03/27 00:11:24;;;;;;;8.33;7.27;;;15.10;90.20;;;15.68;43.22;102626.28;4926535;28;111370;-44
2022/03/27 00:14:05;;;;;;;10.27;9.07;;;15.10;90.30;;;15.69;42.98;102628.03;4923470;28;118993;-45
2022/03/27 00:16:31;;;;;;;12.07;9.60;;;15.10;90.50;;;15.68;43.10;102628.94;4928718;28;99962;-46
2022/03/27 00:18:58;;;;;;;19.87;15.93;;;15.00;90.40;;;15.69;43.13;102630.69;4925626;28;98676;-47
2022/03/27 00:21:24;;;;;;;9.63;8.63;;;15.10;90.40;;;15.72;43.06;102633.25;4929557;28;98095;-45
2022/03/27 00:23:52;;;;;;;8.47;7.13;;;15.10;90.30;;;15.73;42.93;102637.66;4926112;28;98974;-46
2022/03/27 00:26:19;;;;;;;19.17;13.77;;;15.10;90.40;;;15.71;42.96;102631.50;4928388;28;98707;-46
2022/03/27 00:28:46;;;;;;;9.07;7.70;;;15.10;90.60;;;15.72;43.13;102632.38;4924116;28;112855;-43
2022/03/27 00:31:12;;;;;;;9.00;7.93;;;15.10;90.50;;;15.74;43.06;102634.09;4929293;28;98679;-49
2022/03/27 00:33:41;;;;;;;10.53;9.30;;;15.10;90.50;;;15.75;43.00;102630.50;4929147;28;118378;-43
2022/03/27 00:36:10;;;;;;;8.10;7.33;;;15.20;90.30;;;15.79;43.02;102636.66;4935778;28;101363;-46
2022/03/27 00:38:37;;;;;;;13.73;12.20;;;15.20;90.20;;;15.80;42.67;102624.22;4927846;28;97627;-48
2022/03/27 00:41:04;;;;;;;18.17;15.53;;;15.20;90.20;;;15.80;42.80;102625.09;4925407;28;100071;-48
2022/03/27 00:43:30;;;;;;;8.10;7.40;;;15.20;90.20;;;15.77;42.94;102626.06;4928936;28;100760;-43
2022/03/27 00:45:56;;;;;;;9.30;8.37;;;15.20;90.50;;;15.76;42.84;102624.28;4936153;28;114981;-42
2022/03/27 00:48:22;;;;;;;20.90;17.07;;;15.20;90.40;;;15.74;42.85;102627.88;4928201;28;128478;-45
2022/03/27 00:50:50;;;;;;;16.03;12.77;;;15.10;90.50;;;15.69;42.89;102621.81;4927076;28;99667;-45
2022/03/27 00:53:18;;;;;;;18.67;15.77;;;15.00;90.70;;;15.61;43.09;102624.66;4929189;28;97780;-43
2022/03/27 00:55:48;;;;;;;10.07;8.70;;;14.90;91.30;;;15.59;43.28;102615.88;4925950;28;97629;-45
2022/03/27 00:58:16;;;;;;;10.03;9.03;;;14.90;91.20;;;15.61;43.44;102614.03;4930098;28;98422;-46
2022/03/27 01:01:03;;;;;;;10.00;8.17;;;14.90;91.10;;;15.63;43.10;102622.00;4930043;28;98629;-43
2022/03/27 01:03:30;;;;;;;13.30;11.73;;;15.00;91.00;;;15.63;43.33;102628.19;4926484;28;98517;-45
2022/03/27 01:05:57;;;;;;;14.93;13.33;;;15.00;90.80;;;15.62;43.26;102615.81;4924512;28;98069;-44
2022/03/27 01:11:21;;;;;;;12.90;10.87;;;14.90;91.40;;;15.55;43.37;102606.19;4925919;28;101160;-47
2022/03/27 01:13:55;;;;;;;17.83;14.00;;;14.80;91.40;;;15.53;43.39;102610.69;4927016;28;99472;-45
2022/03/27 01:16:47;;;;;;;13.90;12.33;;;14.80;91.30;;;15.52;43.46;102606.28;4928337;28;99033;-45
2022/03/27 01:19:15;;;;;;;9.43;8.43;;;14.80;91.30;;;15.50;43.64;102600.13;4926605;28;102361;-42
2022/03/27 01:21:44;;;;;;;13.47;11.80;;;14.80;91.30;;;15.50;43.72;102600.13;4926888;28;98446;-44
2022/03/27 01:24:11;;;;;;;18.03;15.93;;;14.80;91.30;;;15.49;43.80;102590.41;4926601;28;98073;-49
2022/03/27 01:26:39;;;;;;;10.50;9.40;;;14.80;91.40;;;15.48;43.63;102588.66;4928358;28;98013;-42
2022/03/27 01:29:05;;;;;;;9.87;8.87;;;14.80;91.50;;;15.46;43.73;102588.66;4926070;28;98829;-43
2022/03/27 01:31:35;;;;;;;13.03;11.60;;;14.70;91.40;;;15.41;43.92;102587.03;4928403;28;100017;-44
2022/03/27 01:34:02;;;;;;;19.40;15.10;;;14.70;91.70;;;15.38;44.05;102579.16;4924567;28;98292;-45
2022/03/27 01:36:34;;;;;;;11.43;10.33;;;14.60;91.90;;;15.36;44.24;102580.97;4927402;28;100001;-46
2022/03/27 01:39:06;;;;;;;22.60;17.60;;;14.60;91.90;;;15.35;44.14;102580.13;4924626;28;97475;-47
2022/03/27 01:41:32;;;;;;;13.33;11.57;;;14.60;91.90;;;15.37;43.96;102583.59;4938031;28;97628;-45
2022/03/27 01:43:59;;;;;;;10.30;9.23;;;14.60;91.80;;;15.39;43.82;102586.22;4924420;28;97887;-44
2022/03/27 01:46:26;;;;;;;9.50;8.60;;;14.70;91.60;;;15.41;43.81;102576.41;4929175;28;98492;-45
2022/03/27 01:48:51;;;;;;;8.43;7.57;;;14.80;91.30;;;15.45;43.77;102575.41;4925027;28;98812;-44
2022/03/27 01:51:17;;;;;;;9.97;8.77;;;14.90;91.10;;;15.47;43.56;102578.91;4928117;28;99244;-44
2022/03/27 01:53:43;;;;;;;10.40;9.20;;;14.90;91.20;;;15.47;43.66;102573.56;4925903;28;98342;-46
2022/03/27 01:56:09;;;;;;;13.30;11.13;;;14.90;91.10;;;15.49;43.76;102571.78;4925855;28;116773;-44
2022/03/27 01:58:39;;;;;;;17.23;15.03;;;14.90;91.20;;;15.48;43.90;102572.69;4928247;28;99686;-45
2022/03/27 02:01:09;;;;;;;19.60;15.93;;;14.80;91.40;;;15.48;43.69;102575.34;4926640;28;97497;-44
2022/03/27 02:03:35;;;;;;;13.73;12.00;;;14.80;91.40;;;15.44;43.84;102573.66;4911779;28;98857;-46
2022/03/27 02:06:05;;;;;;;11.53;9.63;;;14.70;91.60;;;15.44;43.80;102576.31;4934284;28;98823;-44
2022/03/27 02:08:34;;;;;;;16.20;14.50;;;14.70;91.70;;;15.44;43.91;102573.66;4927247;28;98049;-44
2022/03/27 02:11:02;;;;;;;16.50;13.33;;;14.70;91.60;;;15.40;43.96;102572.00;4924294;28;98988;-45
2022/03/27 02:13:29;;;;;;;20.47;16.70;;;14.60;92.00;;;15.38;44.06;102573.84;4928945;28;99881;-45
2022/03/27 02:15:57;;;;;;;8.67;7.77;;;14.60;92.00;;;15.43;43.77;102577.25;4926334;28;98674;-43
2022/03/27 02:18:29;;;;;;;17.70;14.47;;;14.70;91.50;;;15.46;43.76;102577.16;4927602;28;98212;-43
2022/03/27 02:20:55;;;;;;;7.77;6.83;;;14.80;91.50;;;15.48;43.74;102575.34;4925227;28;99675;-45
2022/03/27 02:23:22;;;;;;;11.03;9.10;;;14.80;91.40;;;15.49;43.79;102579.75;4928661;28;100285;-42
2022/03/27 02:25:49;;;;;;;8.73;7.90;;;14.90;91.30;;;15.52;43.74;102582.34;4925500;28;98998;-48
2022/03/27 02:28:14;;;;;;;8.80;7.90;;;14.90;91.20;;;15.53;43.72;102577.88;4928560;28;98605;-44
2022/03/27 02:30:42;;;;;;;12.10;10.37;;;14.90;91.30;;;15.53;43.74;102572.56;4927613;28;99246;-42
2022/03/27 02:33:08;;;;;;;8.00;7.20;;;14.90;91.40;;;15.46;43.68;102580.69;4923978;28;97686;-47
2022/03/27 02:35:34;;;;;;;20.77;16.23;;;14.80;91.50;;;15.34;44.07;102577.50;4926174;28;98690;-45
2022/03/27 02:38:04;;;;;;;20.33;13.43;;;14.60;92.10;;;15.33;44.14;102584.56;4924161;28;108515;-47
2022/03/27 02:40:41;;;;;;;11.77;10.57;;;14.60;91.90;;;15.23;44.17;102580.41;4926143;28;98240;-42
2022/03/27 02:43:09;;;;;;;8.33;7.60;;;14.40;92.50;;;15.25;44.20;102577.72;4925543;28;98417;-43
2022/03/27 02:45:36;;;;;;;20.03;15.33;;;14.50;92.20;;;15.26;43.98;102579.47;4927810;28;98292;-44
2022/03/27 02:48:01;;;;;;;7.20;6.50;;;14.50;91.70;;;15.25;44.12;102583.03;4923550;28;99379;-43
2022/03/27 02:50:30;;;;;;;9.20;8.30;;;14.50;92.10;;;15.27;44.08;102584.72;4923984;28;127145;-43
2022/03/27 02:52:57;;;;;;;7.87;7.07;;;14.50;91.80;;;15.32;43.94;102579.28;4924070;28;99313;-42
2022/03/27 02:55:24;;;;;;;8.57;7.33;;;14.70;91.50;;;15.35;43.77;102574.78;4926507;28;99613;-46
2022/03/27 02:57:50;;;;;;;7.07;6.47;;;14.70;91.40;;;15.39;43.87;102571.13;4923969;28;98626;-44
2022/03/27 03:00:17;;;;;;;7.90;7.10;;;14.80;91.30;;;15.43;43.90;102577.25;4934669;28;98672;-43
2022/03/27 03:02:43;;;;;;;10.90;8.73;;;14.80;91.20;;;15.42;43.79;102573.72;4940767;28;97476;-43
2022/03/27 03:05:09;;;;;;;15.07;12.70;;;14.80;91.30;;;15.38;43.88;102571.19;4935966;28;97860;-42
2022/03/27 03:07:41;;;;;;;9.87;7.70;;;14.70;91.30;;;15.32;44.02;102573.97;4940299;28;98168;-42
2022/03/27 03:10:07;;;;;;;8.67;7.83;;;14.50;92.00;;;15.30;44.14;102575.81;4934710;28;97724;-42
2022/03/27 03:12:33;;;;;;;7.03;6.33;;;14.50;91.90;;;15.32;44.10;102571.31;4941797;28;107004;-43
2022/03/27 03:14:59;;;;;;;8.97;7.73;;;14.50;91.80;;;15.33;43.90;102570.41;4936970;28;98683;-45
2022/03/27 03:17:25;;;;;;;8.70;7.80;;;14.60;91.40;;;15.36;43.99;102573.88;4939498;28;125293;-44
2022/03/27 03:19:52;;;;;;;9.63;8.63;;;14.70;91.30;;;15.39;43.66;102572.91;4936293;28;97867;-46
2022/03/27 03:22:18;;;;;;;10.00;8.90;;;14.70;91.20;;;15.41;43.56;102576.41;4941824;28;97422;-46
2022/03/27 03:24:45;;;;;;;9.10;7.67;;;14.70;91.00;;;15.41;43.58;102579.06;4936338;28;97682;-46
2022/03/27 03:27:11;;;;;;;15.20;12.03;;;14.70;91.20;;;15.40;43.77;102569.34;4941529;28;101894;-46
2022/03/27 03:29:36;;;;;;;15.57;13.30;;;14.70;91.10;;;15.36;43.71;102570.34;4938018;28;128342;-42
2022/03/27 03:32:02;;;;;;;12.70;11.07;;;14.60;91.50;;;15.29;43.76;102566.94;4938705;28;118173;-46
2022/03/27 03:34:28;;;;;;;7.17;6.53;;;14.50;91.90;;;15.33;43.81;102570.41;4940938;28;100190;-42
2022/03/27 03:36:54;;;;;;;7.70;7.00;;;14.50;91.80;;;15.35;43.69;102571.25;4937665;28;128219;-43
2022/03/27 03:39:19;;;;;;;7.33;6.63;;;14.70;91.40;;;15.37;44.01;102566.78;4940035;28;125228;-42
2022/03/27 03:41:45;;;;;;;7.33;6.53;;;14.70;91.30;;;15.40;43.80;102572.00;4938822;28;98397;-43
2022/03/27 03:44:11;;;;;;;11.83;10.60;;;14.70;91.30;;;15.41;43.83;102573.75;4940226;28;97697;-43
2022/03/27 03:46:37;;;;;;;16.13;12.60;;;14.80;91.20;;;15.41;43.91;102574.63;4940195;28;97590;-44
2022/03/27 03:49:06;;;;;;;8.57;7.67;;;14.70;91.30;;;15.40;43.81;102572.00;4935031;28;128283;-42
2022/03/27 03:51:34;;;;;;;13.93;11.20;;;14.70;91.50;;;15.38;43.70;102568.53;4940689;28;97182;-44
2022/03/27 03:54:02;;;;;;;11.67;9.53;;;14.60;91.30;;;15.32;43.99;102564.22;4933772;28;96936;-46
2022/03/27 03:56:28;;;;;;;6.80;6.10;;;14.50;91.80;;;15.32;44.27;102558.00;4937628;28;97710;-43
2022/03/27 03:58:53;;;;;;;7.00;6.40;;;14.50;91.90;;;15.34;44.00;102569.53;4928921;28;128786;-44
2022/03/27 04:01:19;;;;;;;7.83;6.73;;;14.60;91.60;;;15.35;44.06;102563.28;4941358;28;118052;-45
2022/03/27 04:03:45;;;;;;;8.73;7.20;;;14.60;91.50;;;15.34;44.09;102566.84;4931558;28;97531;-45
2022/03/27 04:06:11;;;;;;;14.57;12.40;;;14.60;91.50;;;15.36;43.91;102575.66;4928613;28;127495;-46
2022/03/27 04:08:36;;;;;;;7.07;6.40;;;14.60;91.50;;;15.36;44.18;102570.34;4938759;28;127707;-45
2022/03/27 04:11:02;;;;;;;7.10;6.40;;;14.60;91.60;;;15.34;44.03;102566.84;4936555;28;120167;-43
2022/03/27 04:13:28;;;;;;;7.67;6.87;;;14.60;91.70;;;15.37;44.02;102572.09;4940889;28;96998;-44
2022/03/27 04:15:54;;;;;;;14.80;13.17;;;14.60;91.60;;;15.37;44.10;102567.66;4934571;28;128737;-45
2022/03/27 04:18:20;;;;;;;11.53;9.57;;;14.60;91.30;;;15.36;44.29;102565.91;4941205;28;97235;-45
2022/03/27 04:20:46;;;;;;;9.03;8.13;;;14.60;91.50;;;15.34;44.25;102572.19;4946434;28;99264;-42
2022/03/27 04:23:11;;;;;;;7.93;7.13;;;14.50;91.70;;;15.33;43.98;102568.59;4942465;28;96980;-44
2022/03/27 04:25:38;;;;;;;7.50;6.80;;;14.60;91.70;;;15.36;44.15;102570.34;4939596;28;109772;-42
2022/03/27 04:28:09;;;;;;;12.10;10.43;;;14.60;91.50;;;15.34;43.97;102570.38;4936178;28;98111;-45
2022/03/27 04:30:35;;;;;;;13.53;11.53;;;14.60;91.50;;;15.34;44.16;102567.72;4938331;28;99238;-43
2022/03/27 04:33:01;;;;;;;7.17;6.47;;;14.60;91.40;;;15.31;44.12;102565.13;4938772;28;97008;-42
2022/03/27 04:35:27;;;;;;;15.47;12.50;;;14.60;91.90;;;15.31;44.22;102572.22;4939572;28;127852;-47
2022/03/27 04:37:52;;;;;;;17.97;15.57;;;14.60;91.60;;;15.26;43.98;102568.81;4937831;28;126851;-47
2022/03/27 04:40:18;;;;;;;8.17;7.30;;;14.40;91.90;;;15.22;44.42;102567.16;4938110;28;118213;-46
2022/03/27 04:42:45;;;;;;;7.73;6.03;;;14.30;92.10;;;15.23;44.21;102574.22;4938495;28;97092;-45
2022/03/27 04:45:11;;;;;;;9.57;6.63;;;14.40;92.10;;;15.23;44.44;102569.78;4936317;28;128304;-43
2022/03/27 04:47:38;;;;;;;9.53;8.30;;;14.50;91.60;;;15.26;44.30;102575.00;4941659;28;97297;-44
2022/03/27 04:50:05;;;;;;;7.57;6.77;;;14.60;91.70;;;15.29;44.03;102572.28;4937381;28;98214;-43
2022/03/27 04:52:31;;;;;;;7.47;6.47;;;14.60;91.50;;;15.31;43.93;102577.53;4941188;28;97451;-46
2022/03/27 04:54:57;;;;;;;12.57;11.23;;;14.60;91.40;;;15.29;44.11;102580.25;4935438;28;97514;-44
2022/03/27 04:57:23;;;;;;;15.90;10.67;;;14.60;91.60;;;15.27;44.23;102583.88;4940140;28;97547;-45
2022/03/27 04:59:49;;;;;;;7.43;6.70;;;14.50;91.90;;;15.19;44.05;102589.38;4937334;28;97398;-43
2022/03/27 05:02:15;;;;;;;15.20;12.10;;;14.40;91.90;;;15.14;44.48;102589.47;4941446;28;119156;-46
2022/03/27 05:04:41;;;;;;;10.70;9.53;;;14.30;92.30;;;15.12;44.64;102591.28;4937210;28;126572;-46
2022/03/27 05:07:07;;;;;;;9.07;6.90;;;14.30;92.30;;;15.08;44.65;102589.63;4941082;28;97741;-42
2022/03/27 05:09:34;;;;;;;6.27;5.67;;;14.20;92.40;;;15.10;44.58;102595.78;4942182;28;100673;-46
2022/03/27 05:11:59;;;;;;;11.60;10.37;;;14.30;92.10;;;15.12;44.38;102604.59;4941032;28;97284;-48
2022/03/27 05:14:25;;;;;;;13.47;10.70;;;14.40;91.60;;;15.09;44.36;102604.66;4938410;28;128955;-46
2022/03/27 05:16:51;;;;;;;8.73;7.77;;;14.30;92.00;;;15.04;44.60;102606.53;4940598;28;98734;-47
2022/03/27 05:19:17;;;;;;;7.07;6.37;;;14.20;92.10;;;15.04;44.45;102601.22;4940264;28;114086;-44
2022/03/27 05:21:42;;;;;;;6.37;5.77;;;14.20;92.40;;;15.05;44.50;102603.00;4943425;28;103505;-42
2022/03/27 05:24:09;;;;;;;11.13;9.43;;;14.20;92.40;;;15.08;44.38;102602.91;4934561;28;132897;-46
2022/03/27 05:26:36;;;;;;;7.10;6.40;;;14.30;91.70;;;15.09;44.61;102607.31;4944852;28;97856;-45
2022/03/27 05:29:08;;;;;;;8.40;7.37;;;14.30;92.00;;;15.10;44.44;102603.75;4940539;28;97469;-44
2022/03/27 05:31:34;;;;;;;7.20;6.50;;;14.30;91.70;;;15.11;44.33;102608.16;4941152;28;97534;-45
2022/03/27 05:34:00;;;;;;;8.70;7.70;;;14.30;91.90;;;15.08;44.35;102608.25;4940290;28;111317;-45
2022/03/27 05:36:26;;;;;;;11.60;10.13;;;14.30;92.00;;;15.11;44.42;102607.28;4944051;28;97411;-43
2022/03/27 05:38:52;;;;;;;8.53;7.73;;;14.30;92.10;;;15.12;44.70;102609.03;4943395;28;96846;-43
2022/03/27 05:41:18;;;;;;;11.60;9.57;;;14.30;92.00;;;15.14;44.44;102612.53;4942986;28;97485;-45
2022/03/27 05:43:43;;;;;;;7.27;6.57;;;14.40;92.10;;;15.09;44.61;102615.31;4942663;28;98061;-48
2022/03/27 05:46:10;;;;;;;9.87;8.87;;;14.30;92.40;;;15.12;44.72;102606.38;4938833;28;104664;-49
2022/03/27 05:48:36;;;;;;;9.50;7.87;;;14.30;92.30;;;15.11;44.80;102612.59;4943169;28;97316;-45
2022/03/27 05:51:02;;;;;;;15.13;12.90;;;14.30;92.60;;;15.09;44.73;102615.31;4938691;28;97419;-45
2022/03/27 05:53:29;;;;;;;14.10;10.07;;;14.30;92.60;;;15.08;44.82;102612.69;4943214;28;98508;-49
2022/03/27 05:55:57;;;;;;;14.03;11.47;;;14.20;92.60;;;15.06;44.69;102615.38;4937502;28;97240;-43
2022/03/27 05:58:23;;;;;;;10.60;9.57;;;14.20;92.70;;;15.05;44.71;102618.06;4943706;28;96950;-42
2022/03/27 06:00:51;;;;;;;11.33;10.17;;;14.20;92.80;;;15.00;44.78;102620.81;4940217;28;97427;-43
2022/03/27 06:03:17;;;;;;;16.83;12.70;;;14.20;93.10;;;14.98;44.95;102622.66;4948055;28;103360;-42
2022/03/27 06:05:43;;;;;;;13.53;12.07;;;14.10;93.00;;;14.96;45.10;102627.13;4943164;28;97497;-43
2022/03/27 06:08:09;;;;;;;11.33;9.00;;;14.10;93.20;;;14.95;45.22;102628.03;4940600;28;112728;-42
2022/03/27 06:10:35;;;;;;;9.73;7.80;;;14.10;93.20;;;14.95;45.20;102633.34;4943484;28;96880;-42
2022/03/27 06:13:03;;;;;;;16.00;12.07;;;14.10;93.10;;;14.95;44.98;102627.16;4939898;28;97648;-42
2022/03/27 06:15:30;;;;;;;17.87;14.17;;;14.10;93.20;;;14.93;44.94;102645.81;4937145;28;100639;-44
2022/03/27 06:17:57;;;;;;;11.73;10.20;;;14.10;93.40;;;14.90;45.21;102640.56;4939898;28;106599;-46
2022/03/27 06:20:27;;;;;;;9.10;8.10;;;14.10;93.50;;;14.87;45.11;102640.59;4936514;28;97484;-43
2022/03/27 06:22:54;;;;;;;10.00;8.90;;;14.00;93.80;;;14.82;45.30;102647.81;4940130;28;97492;-43
2022/03/27 06:25:24;;;;;;;12.17;9.83;;;14.00;93.90;;;14.85;45.07;102645.97;4935988;28;98144;-41
2022/03/27 06:27:50;;;;;;;10.13;9.10;;;14.00;93.70;;;14.84;45.30;102651.31;4932935;28;97445;-41
2022/03/27 06:30:20;;;;;;;12.70;10.63;;;14.00;94.00;;;14.86;45.30;102654.81;4939086;28;97468;-44
2022/03/27 06:32:47;;;;;;;9.77;8.80;;;14.00;94.20;;;14.87;45.28;102653.88;4937565;28;99651;-43
2022/03/27 06:35:15;;;;;;;10.03;8.57;;;14.10;94.50;;;14.87;45.25;102652.09;4939287;28;97503;-41
2022/03/27 06:37:41;;;;;;;9.63;7.40;;;14.10;94.30;;;14.91;45.30;102652.94;4940865;28;104734;-43
2022/03/27 06:40:09;;;;;;;9.17;8.17;;;14.10;94.30;;;14.95;45.39;102653.75;4928824;28;105511;-42
2022/03/27 06:42:36;;;;;;;7.50;6.03;;;14.20;94.30;;;14.98;45.23;102657.19;4946913;28;97619;-47
2022/03/27 06:45:03;;;;;;;11.07;9.70;;;14.20;94.00;;;15.07;45.01;102654.34;4937658;28;97274;-42
2022/03/27 06:47:29;;;;;;;9.47;7.77;;;14.40;93.60;;;15.11;44.89;102656.00;4941997;28;97767;-44
2022/03/27 06:49:57;;;;;;;6.90;6.17;;;14.40;93.70;;;15.17;44.86;102657.63;4936617;28;97575;-44
2022/03/27 06:52:25;;;;;;;14.97;12.03;;;14.50;93.50;;;15.21;44.85;102655.81;4943153;28;97949;-43
2022/03/27 06:54:51;;;;;;;16.77;13.87;;;14.60;93.90;;;15.22;45.06;102657.56;4938141;28;98377;-43
2022/03/27 06:57:17;;;;;;;12.07;9.67;;;14.60;94.10;;;15.22;44.72;102654.91;4943041;28;97065;-42
2022/03/27 07:05:14;;;;;;;7.50;6.70;;;14.50;94.20;;;15.22;44.94;102662.88;4939151;28;101077;-42
2022/03/27 07:07:43;;;;;;;5.80;5.20;;;14.60;94.30;;;15.28;44.64;102662.72;4943006;28;99992;-42
2022/03/27 07:10:11;;;;;;;7.43;5.77;;;14.70;93.10;;;15.34;44.61;102663.47;4934920;28;104795;-42
2022/03/27 07:12:38;;;;;;;15.80;13.97;;;14.80;93.00;;;15.41;45.20;102664.16;4941911;28;98107;-42
2022/03/27 07:15:06;;;;;;;6.63;5.93;;;15.00;94.10;;;15.46;44.29;102670.25;4937910;28;97348;-44
2022/03/27 07:17:32;;;;;;;6.73;5.93;;;15.00;93.00;;;15.59;43.92;102666.41;4939912;28;97053;-42
2022/03/27 07:19:57;;;;;;;6.43;5.70;;;15.20;91.60;;;15.81;43.61;102660.56;4936140;28;97033;-43
2022/03/27 07:22:24;;;;;;;8.33;7.33;;;15.50;90.80;;;16.00;43.06;102661.81;4944751;28;128093;-44
2022/03/27 07:24:50;;;;;;;7.23;6.53;;;15.90;90.20;;;16.17;42.56;102656.03;4938043;28;98454;-43
2022/03/27 07:27:16;;;;;;;6.20;5.60;;;16.10;89.40;;;16.25;42.76;102654.91;4941931;28;97094;-41
2022/03/27 07:29:42;;;;;;;5.87;5.37;;;16.20;91.40;;;16.28;42.57;102653.94;4937110;28;97468;-42
2022/03/27 07:32:11;;;;;;;5.80;5.30;;;16.20;90.80;;;16.42;42.19;102661.56;4938163;28;128907;-43
2022/03/27 07:34:37;;;;;;;5.93;5.20;;;16.30;88.80;;;16.53;42.03;102648.81;4940618;28;97172;-43
2022/03/27 07:37:03;;;;;;;5.70;5.20;;;16.50;88.00;;;16.59;42.06;102653.94;4935956;28;97132;-42
2022/03/27 07:39:30;;;;;;;7.73;7.03;;;16.60;88.80;;;16.67;41.68;102659.97;4937988;28;96908;-42
2022/03/27 07:41:55;;;;;;;13.03;11.50;;;16.60;87.90;;;16.67;42.22;102659.97;4937846;28;97643;-43
2022/03/27 07:44:21;;;;;;;5.37;4.87;;;16.50;90.10;;;16.74;41.46;102664.19;4941442;28;98028;-42
2022/03/27 07:46:52;;;;;;;5.70;5.10;;;16.60;87.60;;;16.83;41.40;102661.25;4937607;28;97108;-46
2022/03/27 07:49:19;;;;;;;5.20;4.73;;;16.80;87.80;;;16.91;41.35;102661.00;4942421;28;96889;-44
2022/03/27 07:51:45;;;;;;;12.00;10.70;;;16.90;86.50;;;16.99;41.43;102663.44;4938535;28;97737;-46
2022/03/27 07:54:11;;;;;;;5.80;4.80;;;17.00;87.70;;;17.04;41.01;102666.84;4938918;28;128118;-45
2022/03/27 07:56:36;;;;;;;5.70;5.13;;;17.10;85.90;;;17.10;40.74;102666.66;4940476;28;97446;-44
2022/03/27 07:59:02;;;;;;;5.10;4.60;;;17.20;85.40;;;17.15;40.76;102665.59;4938112;28;96931;-43
2022/03/27 08:01:28;;;;;;;13.90;12.43;;;17.30;85.40;;;17.17;41.56;102668.19;4942902;28;128651;-43
2022/03/27 08:03:56;;;;;;;5.23;4.70;;;17.30;89.70;;;17.17;40.96;102666.41;4942536;28;102917;-46
2022/03/27 08:06:23;;;;;;;15.90;14.43;;;17.20;86.30;;;16.89;48.17;102671.72;4937432;28;97340;-44
2022/03/27 08:08:49;;;;;;;16.30;14.70;;;16.90;93.90;;;16.88;46.08;102669.97;4938348;28;97112;-48
2022/03/27 08:11:14;;;;;;;11.17;9.57;;;16.70;92.60;;;16.85;42.33;102672.72;4938516;28;98152;-43
2022/03/27 08:13:40;;;;;;;7.77;6.97;;;16.60;91.10;;;16.78;42.12;102664.94;4941322;28;97656;-47
2022/03/27 08:16:06;;;;;;;6.07;5.00;;;16.60;90.80;;;16.75;42.26;102665.06;4937453;28;119286;-45
2022/03/27 08:18:33;;;;;;;5.17;4.67;;;16.60;90.90;;;16.80;41.85;102661.34;4941283;28;106915;-48
2022/03/27 08:20:58;;;;;;;15.37;13.87;;;16.70;88.20;;;16.82;43.81;102659.50;4933113;28;97646;-43
2022/03/27 08:23:24;;;;;;;4.70;4.30;;;16.80;92.80;;;16.86;41.84;102657.63;4939762;28;113656;-45
2022/03/27 08:28:35;;;;;;;5.00;4.50;;;16.90;87.30;;;17.02;41.67;102642.00;4939376;28;97771;-42
2022/03/27 08:31:01;;;;;;;8.00;7.17;;;17.00;87.90;;;17.04;42.16;102650.84;4933552;28;97358;-45
2022/03/27 08:33:27;;;;;;;5.10;4.60;;;17.10;90.80;;;17.05;41.75;102652.56;4941824;28;97160;-46
2022/03/27 08:35:53;;;;;;;4.70;4.10;;;17.00;87.30;;;17.11;41.68;102642.59;4935882;28;118359;-45
2022/03/27 08:38:19;;;;;;;4.90;4.30;;;17.10;86.70;;;17.14;41.68;102641.63;4943649;28;98384;-48
2022/03/27 08:40:47;;;;;;;5.07;4.60;;;17.20;87.50;;;17.19;41.52;102640.56;4936526;28;97787;-47
2022/03/27 08:43:17;;;;;;;4.73;4.30;;;17.20;86.30;;;17.24;41.53;102643.09;4945754;28;97534;-46
2022/03/27 08:45:44;;;;;;;14.83;13.33;;;17.30;86.00;;;17.29;43.87;102641.13;4941524;28;117220;-46
2022/03/27 08:48:11;;;;;;;5.83;4.60;;;17.40;90.30;;;17.30;41.59;102634.88;4940430;28;97333;-46
2022/03/27 08:50:50;;;;;;;16.53;14.90;;;17.40;86.30;;;17.33;42.05;102640.09;4940502;28;97606;-45
2022/03/27 08:53:51;;;;;;;4.77;4.23;;;17.40;90.00;;;17.34;41.16;102644.53;4938890;28;101638;-45
2022/03/27 08:56:18;;;;;;;5.10;4.13;;;17.40;86.20;;;17.33;41.41;102642.78;4926746;28;100848;-46
2022/03/27 08:58:45;;;;;;;4.43;4.03;;;17.40;85.80;;;17.37;41.28;102639.13;4941506;28;105030;-46
2022/03/27 09:01:11;;;;;;;5.23;4.73;;;17.50;85.60;;;17.37;41.50;102639.13;4940829;28;130917;-45
2022/03/27 09:03:38;;;;;;;12.90;11.70;;;17.40;88.30;;;17.38;41.41;102640.84;4943423;28;97809;-42
2022/03/27 09:06:08;;;;;;;15.27;13.67;;;17.40;86.80;;;17.31;42.11;102638.41;4937679;28;97290;-44
2022/03/27 09:08:34;;;;;;;16.33;14.73;;;17.30;90.30;;;17.22;45.81;102634.28;4943952;28;96963;-45
2022/03/27 09:11:01;;;;;;;4.00;3.53;;;17.10;93.40;;;17.18;41.80;102637.94;4938590;28;98109;-46
2022/03/27 09:13:27;;;;;;;13.70;12.17;;;17.10;88.40;;;17.07;43.52;102640.06;4944252;28;97144;-44
2022/03/27 09:16:02;;;;;;;5.30;4.80;;;17.00;92.30;;;17.13;41.79;102640.75;4937131;28;118267;-42
2022/03/27 09:18:53;;;;;;;7.70;6.93;;;17.00;88.20;;;17.18;43.84;102643.28;4944355;28;97188;-42
2022/03/27 09:21:22;;;;;;;15.27;13.77;;;17.10;91.60;;;17.18;44.84;102651.28;4937159;28;106816;-48
2022/03/27 09:24:01;;;;;;;18.27;14.97;;;17.10;92.30;;;17.09;49.15;102639.13;4940669;28;97124;-45
2022/03/27 09:26:28;;;;;;;17.67;15.87;;;17.00;93.90;;;16.90;50.72;102637.94;4942714;28;97560;-44
2022/03/27 09:29:08;;;;;;;15.33;13.83;;;16.80;95.70;;;16.85;43.16;102639.88;4945405;28;97290;-44
2022/03/27 09:31:34;;;;;;;6.73;6.00;;;16.60;92.10;;;16.90;42.85;102644.13;4940972;28;97649;-45
2022/03/27 09:34:02;;;;;;;6.73;6.03;;;16.80;90.90;;;16.91;43.15;102639.66;4939533;28;97551;-49
2022/03/27 09:36:37;;;;;;;16.87;15.13;;;16.80;91.50;;;16.90;49.50;102643.25;4935003;28;97539;-46
2022/03/27 09:39:09;;;;;;;17.43;15.30;;;16.80;94.80;;;16.89;50.30;102642.38;4924826;28;97311;-43
2022/03/27 09:41:51;;;;;;;12.40;11.03;;;16.80;95.00;;;16.89;44.79;102641.53;4926896;28;99440;-44
2022/03/27 09:44:18;;;;;;;5.03;3.97;;;16.80;92.90;;;16.95;42.53;102631.56;4924673;28;102829;-46
2022/03/27 09:46:59;;;;;;;17.17;15.37;;;16.90;89.20;;;16.94;43.97;102635.16;4924487;28;99150;-49
2022/03/27 09:49:46;;;;;;;15.97;14.37;;;16.90;93.60;;;17.04;43.68;102624.16;4924312;28;98638;-45
2022/03/27 09:52:16;;;;;;;18.50;16.57;;;17.00;91.10;;;17.01;49.87;102632.28;4925468;28;102337;-44
2022/03/27 09:54:51;;;;;;;19.43;17.37;;;17.00;95.50;;;16.99;44.98;102620.78;4928021;28;99070;-46
2022/03/27 09:57:18;;;;;;;20.60;17.33;;;16.90;93.30;;;16.79;52.73;102627.63;4925871;28;98757;-44
2022/03/27 09:59:45;;;;;;;19.03;17.03;;;16.80;96.90;;;16.76;51.75;102625.03;4925439;28;99353;-47
2022/03/27 10:02:29;;;;;;;5.10;4.47;;;16.70;96.70;;;16.83;44.02;102613.28;4924299;28;101730;-45
2022/03/27 10:05:05;;;;;;;16.47;14.87;;;16.70;91.40;;;16.89;44.42;102610.41;4923981;28;99388;-44
2022/03/27 10:07:40;;;;;;;19.37;17.37;;;16.80;91.70;;;16.85;49.71;102616.75;4928567;28;100472;-43
2022/03/27 10:10:10;;;;;;;19.57;17.47;;;16.90;94.10;;;16.85;45.54;102608.75;4924720;28;104442;-45
2022/03/27 10:12:38;;;;;;;18.00;16.07;;;16.80;93.20;;;16.83;50.50;102607.94;4938001;28;99412;-43
2022/03/27 10:15:18;;;;;;;18.90;15.83;;;16.90;95.20;;;16.84;50.65;102607.03;4924799;28;98047;-46
2022/03/27 10:17:52;;;;;;;15.30;13.53;;;16.90;94.40;;;16.85;46.41;102603.44;4931280;28;97635;-45
2022/03/27 10:20:21;;;;;;;21.23;17.50;;;16.90;91.80;;;16.87;50.67;102606.91;4920258;28;98661;-43